sensor_id;sensor_type;location;lat;lon;timestamp;pressure;altitude;pressure_sealevel;temperature
49593;BMP280;35499;51.482;4.264;2023-04-24T00:00:15;100048.50;;;10.55
49593;BMP280;35499;51.482;4.264;2023-04-24T00:02:44;100044.22;;;10.55
49593;BMP280;35499;51.482;4.264;2023-04-24T00:05:12;100062.19;;;10.55
49593;BMP280;35499;51.482;4.264;2023-04-24T00:07:39;100053.69;;;10.53
49593;BMP280;35499;51.482;4.264;2023-04-24T00:10:04;100047.66;;;10.55
49593;BMP280;35499;51.482;4.264;2023-04-24T00:12:30;100044.16;;;10.56
49593;BMP280;35499;51.482;4.264;2023-04-24T00:14:55;100047.59;;;10.56
49593;BMP280;35499;51.482;4.264;2023-04-24T00:17:21;100053.63;;;10.55
49593;BMP280;35499;51.482;4.264;2023-04-24T00:19:49;100061.31;;;10.55
49593;BMP280;35499;51.482;4.264;2023-04-24T00:22:18;100051.06;;;10.55
49593;BMP280;35499;51.482;4.264;2023-04-24T00:24:43;100056.22;;;10.54
49593;BMP280;35499;51.482;4.264;2023-04-24T00:27:08;100054.63;;;10.50
49593;BMP280;35499;51.482;4.264;2023-04-24T00:29:34;100052.19;;;10.46
49593;BMP280;35499;51.482;4.264;2023-04-24T00:31:59;100055.69;;;10.42
49593;BMP280;35499;51.482;4.264;2023-04-24T00:34:24;100057.50;;;10.38
49593;BMP280;35499;51.482;4.264;2023-04-24T00:36:50;100060.97;;;10.36
49593;BMP280;35499;51.482;4.264;2023-04-24T00:39:18;100061.91;;;10.34
49593;BMP280;35499;51.482;4.264;2023-04-24T00:41:43;100057.66;;;10.33
49593;BMP280;35499;51.482;4.264;2023-04-24T00:44:08;100062.75;;;10.34
49593;BMP280;35499;51.482;4.264;2023-04-24T00:46:34;100061.91;;;10.34
49593;BMP280;35499;51.482;4.264;2023-04-24T00:48:59;100054.22;;;10.32
49593;BMP280;35499;51.482;4.264;2023-04-24T00:51:24;100055.94;;;10.32
49593;BMP280;35499;51.482;4.264;2023-04-24T00:53:50;100052.53;;;10.31
49593;BMP280;35499;51.482;4.264;2023-04-24T00:56:16;100053.47;;;10.29
49593;BMP280;35499;51.482;4.264;2023-04-24T00:58:42;100057.75;;;10.28
49593;BMP280;35499;51.482;4.264;2023-04-24T01:01:08;100054.47;;;10.23
49593;BMP280;35499;51.482;4.264;2023-04-24T01:03:35;100053.66;;;10.21
49593;BMP280;35499;51.482;4.264;2023-04-24T01:06:02;100058.84;;;10.20
49593;BMP280;35499;51.482;4.264;2023-04-24T01:08:28;100064.00;;;10.19
49593;BMP280;35499;51.482;4.264;2023-04-24T01:10:54;100052.94;;;10.17
49593;BMP280;35499;51.482;4.264;2023-04-24T01:13:20;100065.75;;;10.17
49593;BMP280;35499;51.482;4.264;2023-04-24T01:15:46;100061.53;;;10.16
49593;BMP280;35499;51.482;4.264;2023-04-24T01:18:12;100058.06;;;10.17
49593;BMP280;35499;51.482;4.264;2023-04-24T01:20:39;100059.84;;;10.15
49593;BMP280;35499;51.482;4.264;2023-04-24T01:23:05;100048.72;;;10.14
49593;BMP280;35499;51.482;4.264;2023-04-24T01:25:31;100058.16;;;10.14
49593;BMP280;35499;51.482;4.264;2023-04-24T01:27:57;100063.28;;;10.14
49593;BMP280;35499;51.482;4.264;2023-04-24T01:30:22;100054.75;;;10.12
49593;BMP280;35499;51.482;4.264;2023-04-24T01:32:47;100061.59;;;10.11
49593;BMP280;35499;51.482;4.264;2023-04-24T01:35:13;100059.09;;;10.10
49593;BMP280;35499;51.482;4.264;2023-04-24T01:37:39;100060.00;;;10.07
49593;BMP280;35499;51.482;4.264;2023-04-24T01:40:06;100060.88;;;10.06
49593;BMP280;35499;51.482;4.264;2023-04-24T01:42:32;100065.22;;;10.04
49593;BMP280;35499;51.482;4.264;2023-04-24T01:44:58;100062.69;;;10.03
49593;BMP280;35499;51.482;4.264;2023-04-24T01:47:23;100081.56;;;10.01
49593;BMP280;35499;51.482;4.264;2023-04-24T01:49:50;100079.84;;;10.01
49593;BMP280;35499;51.482;4.264;2023-04-24T01:52:15;100076.50;;;9.98
49593;BMP280;35499;51.482;4.264;2023-04-24T01:54:42;100071.44;;;9.96
49593;BMP280;35499;51.482;4.264;2023-04-24T01:57:08;100066.38;;;9.92
49593;BMP280;35499;51.482;4.264;2023-04-24T01:59:34;100074.13;;;9.90
49593;BMP280;35499;51.482;4.264;2023-04-24T02:01:59;100081.00;;;9.88
49593;BMP280;35499;51.482;4.264;2023-04-24T02:04:24;100083.59;;;9.87
49593;BMP280;35499;51.482;4.264;2023-04-24T02:06:50;100075.09;;;9.85
49593;BMP280;35499;51.482;4.264;2023-04-24T02:09:15;100068.31;;;9.83
49593;BMP280;35499;51.482;4.264;2023-04-24T02:11:41;100067.53;;;9.81
49593;BMP280;35499;51.482;4.264;2023-04-24T02:14:06;100078.69;;;9.78
49593;BMP280;35499;51.482;4.264;2023-04-24T02:16:31;100075.28;;;9.76
49593;BMP280;35499;51.482;4.264;2023-04-24T02:19:01;100089.00;;;9.75
49593;BMP280;35499;51.482;4.264;2023-04-24T02:21:27;100086.44;;;9.74
49593;BMP280;35499;51.482;4.264;2023-04-24T02:23:53;100083.00;;;9.75
49593;BMP280;35499;51.482;4.264;2023-04-24T02:26:18;100083.00;;;9.75
49593;BMP280;35499;51.482;4.264;2023-04-24T02:28:43;100089.84;;;9.76
49593;BMP280;35499;51.482;4.264;2023-04-24T02:31:09;100087.25;;;9.77
49593;BMP280;35499;51.482;4.264;2023-04-24T02:33:34;100078.69;;;9.78
49593;BMP280;35499;51.482;4.264;2023-04-24T02:36:01;100066.72;;;9.79
49593;BMP280;35499;51.482;4.264;2023-04-24T02:38:26;100073.50;;;9.81
49593;BMP280;35499;51.482;4.264;2023-04-24T02:40:51;100074.31;;;9.82
49593;BMP280;35499;51.482;4.264;2023-04-24T02:43:17;100061.44;;;9.84
49593;BMP280;35499;51.482;4.264;2023-04-24T02:45:42;100063.91;;;9.87
49593;BMP280;35499;51.482;4.264;2023-04-24T02:48:07;100063.91;;;9.87
49593;BMP280;35499;51.482;4.264;2023-04-24T02:50:33;100053.63;;;9.89
49593;BMP280;35499;51.482;4.264;2023-04-24T02:52:58;100062.97;;;9.91
49593;BMP280;35499;51.482;4.264;2023-04-24T02:55:24;100070.56;;;9.96
49593;BMP280;35499;51.482;4.264;2023-04-24T02:57:50;100063.66;;;9.99
49593;BMP280;35499;51.482;4.264;2023-04-24T03:00:15;100071.34;;;9.99
49593;BMP280;35499;51.482;4.264;2023-04-24T03:02:40;100060.22;;;10.00
49593;BMP280;35499;51.482;4.264;2023-04-24T03:05:06;100073.03;;;10.00
49593;BMP280;35499;51.482;4.264;2023-04-24T03:07:32;100061.00;;;10.02
49593;BMP280;35499;51.482;4.264;2023-04-24T03:09:57;100071.25;;;10.02
49593;BMP280;35499;51.482;4.264;2023-04-24T03:12:23;100061.81;;;10.04
49593;BMP280;35499;51.482;4.264;2023-04-24T03:14:49;100070.34;;;10.04
49593;BMP280;35499;51.482;4.264;2023-04-24T03:17:14;100076.34;;;10.05
49593;BMP280;35499;51.482;4.264;2023-04-24T03:19:40;100064.53;;;9.97
49593;BMP280;35499;51.482;4.264;2023-04-24T03:22:05;100066.34;;;9.93
49593;BMP280;35499;51.482;4.264;2023-04-24T03:24:30;100068.91;;;9.93
49593;BMP280;35499;51.482;4.264;2023-04-24T03:26:56;100080.88;;;9.93
49593;BMP280;35499;51.482;4.264;2023-04-24T03:29:22;100090.28;;;9.94
49593;BMP280;35499;51.482;4.264;2023-04-24T03:31:47;100082.59;;;9.92
49593;BMP280;35499;51.482;4.264;2023-04-24T03:34:12;100082.69;;;9.89
49593;BMP280;35499;51.482;4.264;2023-04-24T03:36:38;100105.88;;;9.85
49593;BMP280;35499;51.482;4.264;2023-04-24T03:39:03;100106.78;;;9.83
49593;BMP280;35499;51.482;4.264;2023-04-24T03:41:28;100106.84;;;9.80
49593;BMP280;35499;51.482;4.264;2023-04-24T03:43:55;100098.38;;;9.75
49593;BMP280;35499;51.482;4.264;2023-04-24T03:46:20;100118.94;;;9.72
49593;BMP280;35499;51.482;4.264;2023-04-24T03:48:46;100113.06;;;9.68
49593;BMP280;35499;51.482;4.264;2023-04-24T03:51:11;100128.44;;;9.68
49593;BMP280;35499;51.482;4.264;2023-04-24T03:53:36;100131.03;;;9.67
49593;BMP280;35499;51.482;4.264;2023-04-24T03:56:02;100131.94;;;9.65
49593;BMP280;35499;51.482;4.264;2023-04-24T03:58:27;100132.84;;;9.62
49593;BMP280;35499;51.482;4.264;2023-04-24T04:00:52;100140.63;;;9.59
49593;BMP280;35499;51.482;4.264;2023-04-24T04:03:17;100134.72;;;9.56
49593;BMP280;35499;51.482;4.264;2023-04-24T04:05:43;100145.03;;;9.51
49593;BMP280;35499;51.482;4.264;2023-04-24T04:08:08;100152.88;;;9.46
49593;BMP280;35499;51.482;4.264;2023-04-24T04:10:33;100155.47;;;9.44
49593;BMP280;35499;51.482;4.264;2023-04-24T04:12:59;100165.72;;;9.43
49593;BMP280;35499;51.482;4.264;2023-04-24T04:15:25;100169.22;;;9.40
49593;BMP280;35499;51.482;4.264;2023-04-24T04:17:50;100179.47;;;9.39
49593;BMP280;35499;51.482;4.264;2023-04-24T04:20:16;100176.91;;;9.39
49593;BMP280;35499;51.482;4.264;2023-04-24T04:22:41;100177.84;;;9.36
49593;BMP280;35499;51.482;4.264;2023-04-24T04:25:06;100180.44;;;9.33
49593;BMP280;35499;51.482;4.264;2023-04-24T04:27:33;100188.16;;;9.32
49593;BMP280;35499;51.482;4.264;2023-04-24T04:29:58;100195.81;;;9.33
49593;BMP280;35499;51.482;4.264;2023-04-24T04:32:28;100195.81;;;9.33
49593;BMP280;35499;51.482;4.264;2023-04-24T04:34:53;100216.31;;;9.33
49593;BMP280;35499;51.482;4.264;2023-04-24T04:37:18;100214.63;;;9.32
49593;BMP280;35499;51.482;4.264;2023-04-24T04:39:44;100219.78;;;9.31
49593;BMP280;35499;51.482;4.264;2023-04-24T04:42:09;100235.19;;;9.28
49593;BMP280;35499;51.482;4.264;2023-04-24T04:44:34;100227.59;;;9.24
49593;BMP280;35499;51.482;4.264;2023-04-24T04:47:01;100234.47;;;9.22
49593;BMP280;35499;51.482;4.264;2023-04-24T04:49:28;100241.38;;;9.18
49593;BMP280;35499;51.482;4.264;2023-04-24T04:51:54;100256.81;;;9.14
49593;BMP280;35499;51.482;4.264;2023-04-24T04:54:19;100250.06;;;9.09
49593;BMP280;35499;51.482;4.264;2023-04-24T04:56:44;100264.59;;;9.08
49593;BMP280;35499;51.482;4.264;2023-04-24T04:59:10;100276.56;;;9.08
49593;BMP280;35499;51.482;4.264;2023-04-24T05:01:36;100284.22;;;9.08
49593;BMP280;35499;51.482;4.264;2023-04-24T05:04:01;100273.97;;;9.09
49593;BMP280;35499;51.482;4.264;2023-04-24T05:06:27;100272.19;;;9.12
49593;BMP280;35499;51.482;4.264;2023-04-24T05:08:52;100279.84;;;9.15
49593;BMP280;35499;51.482;4.264;2023-04-24T05:11:22;100278.06;;;9.20
49593;BMP280;35499;51.482;4.264;2023-04-24T05:13:47;100281.41;;;9.24
49593;BMP280;35499;51.482;4.264;2023-04-24T05:16:13;100295.88;;;9.26
49593;BMP280;35499;51.482;4.264;2023-04-24T05:18:38;100295.88;;;9.26
49593;BMP280;35499;51.482;4.264;2023-04-24T05:21:03;100301.81;;;9.27
49593;BMP280;35499;51.482;4.264;2023-04-24T05:23:29;100321.44;;;9.28
49593;BMP280;35499;51.482;4.264;2023-04-24T05:25:54;100331.69;;;9.29
49593;BMP280;35499;51.482;4.264;2023-04-24T05:28:19;100338.53;;;9.27
49593;BMP280;35499;51.482;4.264;2023-04-24T05:30:45;100339.38;;;9.29
49593;BMP280;35499;51.482;4.264;2023-04-24T05:33:11;100350.47;;;9.28
49593;BMP280;35499;51.482;4.264;2023-04-24T05:35:36;100352.25;;;9.26
49593;BMP280;35499;51.482;4.264;2023-04-24T05:38:01;100354.75;;;9.28
49593;BMP280;35499;51.482;4.264;2023-04-24T05:40:28;100361.56;;;9.30
49593;BMP280;35499;51.482;4.264;2023-04-24T05:42:53;100370.97;;;9.29
49593;BMP280;35499;51.482;4.264;2023-04-24T05:45:19;100371.75;;;9.31
49593;BMP280;35499;51.482;4.264;2023-04-24T05:47:44;100387.13;;;9.31
49593;BMP280;35499;51.482;4.264;2023-04-24T05:50:10;100381.22;;;9.29
49593;BMP280;35499;51.482;4.264;2023-04-24T05:52:35;100396.56;;;9.31
49593;BMP280;35499;51.482;4.264;2023-04-24T05:55:01;100394.88;;;9.30
49593;BMP280;35499;51.482;4.264;2023-04-24T05:57:26;100406.81;;;9.31
49593;BMP280;35499;51.482;4.264;2023-04-24T05:59:51;100422.19;;;9.31
49593;BMP280;35499;51.482;4.264;2023-04-24T06:02:16;100416.16;;;9.32
49593;BMP280;35499;51.482;4.264;2023-04-24T06:04:42;100417.88;;;9.31
49593;BMP280;35499;51.482;4.264;2023-04-24T06:07:10;100431.59;;;9.30
49593;BMP280;35499;51.482;4.264;2023-04-24T06:09:35;100430.72;;;9.30
49593;BMP280;35499;51.482;4.264;2023-04-24T06:12:00;100440.13;;;9.31
49593;BMP280;35499;51.482;4.264;2023-04-24T06:14:26;100446.91;;;9.32
49593;BMP280;35499;51.482;4.264;2023-04-24T06:16:51;100446.03;;;9.33
49593;BMP280;35499;51.482;4.264;2023-04-24T06:19:16;100459.69;;;9.35
49593;BMP280;35499;51.482;4.264;2023-04-24T06:21:42;100466.50;;;9.36
49593;BMP280;35499;51.482;4.264;2023-04-24T06:24:07;100457.97;;;9.35
49593;BMP280;35499;51.482;4.264;2023-04-24T06:26:32;100476.72;;;9.39
49593;BMP280;35499;51.482;4.264;2023-04-24T06:28:57;100479.25;;;9.40
49593;BMP280;35499;51.482;4.264;2023-04-24T06:31:24;100479.19;;;9.43
49593;BMP280;35499;51.482;4.264;2023-04-24T06:33:49;100491.94;;;9.47
49593;BMP280;35499;51.482;4.264;2023-04-24T06:36:15;100486.72;;;9.53
49593;BMP280;35499;51.482;4.264;2023-04-24T06:38:41;100490.03;;;9.60
49593;BMP280;35499;51.482;4.264;2023-04-24T06:41:06;100486.56;;;9.62
49593;BMP280;35499;51.482;4.264;2023-04-24T06:43:32;100498.53;;;9.63
49593;BMP280;35499;51.482;4.264;2023-04-24T06:45:58;100490.03;;;9.61
49593;BMP280;35499;51.482;4.264;2023-04-24T06:48:24;100510.56;;;9.58
49593;BMP280;35499;51.482;4.264;2023-04-24T06:50:50;100516.63;;;9.54
49593;BMP280;35499;51.482;4.264;2023-04-24T06:53:15;100521.00;;;9.47
49593;BMP280;35499;51.482;4.264;2023-04-24T06:55:44;100532.16;;;9.44
49593;BMP280;35499;51.482;4.264;2023-04-24T06:58:12;100533.03;;;9.42
49593;BMP280;35499;51.482;4.264;2023-04-24T07:00:38;100538.22;;;9.39
49593;BMP280;35499;51.482;4.264;2023-04-24T07:03:03;100536.47;;;9.41
49593;BMP280;35499;51.482;4.264;2023-04-24T07:05:30;100538.16;;;9.42
49593;BMP280;35499;51.482;4.264;2023-04-24T07:07:56;100533.84;;;9.45
49593;BMP280;35499;51.482;4.264;2023-04-24T07:10:23;100546.63;;;9.47
49593;BMP280;35499;51.482;4.264;2023-04-24T07:12:49;100547.44;;;9.50
49593;BMP280;35499;51.482;4.264;2023-04-24T07:15:14;100549.94;;;9.53
49593;BMP280;35499;51.482;4.264;2023-04-24T07:17:40;100569.53;;;9.58
49593;BMP280;35499;51.482;4.264;2023-04-24T07:20:08;100569.44;;;9.65
49593;BMP280;35499;51.482;4.264;2023-04-24T07:22:35;100569.28;;;9.76
49593;BMP280;35499;51.482;4.264;2023-04-24T07:25:00;100575.09;;;9.86
49593;BMP280;35499;51.482;4.264;2023-04-24T07:27:26;100583.47;;;9.97
49593;BMP280;35499;51.482;4.264;2023-04-24T07:29:51;100584.22;;;10.03
49593;BMP280;35499;51.482;4.264;2023-04-24T07:32:17;100590.13;;;10.10
49593;BMP280;35499;51.482;4.264;2023-04-24T07:34:42;100587.41;;;10.19
49593;BMP280;35499;51.482;4.264;2023-04-24T07:37:07;100596.72;;;10.22
49593;BMP280;35499;51.482;4.264;2023-04-24T07:39:32;100610.41;;;10.24
49593;BMP280;35499;51.482;4.264;2023-04-24T07:41:58;100601.84;;;10.22
49593;BMP280;35499;51.482;4.264;2023-04-24T07:44:24;100606.97;;;10.25
49593;BMP280;35499;51.482;4.264;2023-04-24T07:46:49;100610.25;;;10.32
49593;BMP280;35499;51.482;4.264;2023-04-24T07:49:15;100628.03;;;10.43
49593;BMP280;35499;51.482;4.264;2023-04-24T07:51:40;100619.28;;;10.55
49593;BMP280;35499;51.482;4.264;2023-04-24T07:54:06;100621.84;;;10.55
49593;BMP280;35499;51.482;4.264;2023-04-24T07:56:32;100619.44;;;10.46
49593;BMP280;35499;51.482;4.264;2023-04-24T07:58:58;100631.63;;;10.34
49593;BMP280;35499;51.482;4.264;2023-04-24T08:01:23;100641.09;;;10.30
49593;BMP280;35499;51.482;4.264;2023-04-24T08:03:48;100641.13;;;10.29
49593;BMP280;35499;51.482;4.264;2023-04-24T08:06:13;100647.97;;;10.28
49593;BMP280;35499;51.482;4.264;2023-04-24T08:08:39;100652.31;;;10.25
49593;BMP280;35499;51.482;4.264;2023-04-24T08:11:04;100666.88;;;10.21
49593;BMP280;35499;51.482;4.264;2023-04-24T08:13:30;100665.22;;;10.18
49593;BMP280;35499;51.482;4.264;2023-04-24T08:15:56;100665.22;;;10.18
49593;BMP280;35499;51.482;4.264;2023-04-24T08:18:22;100672.00;;;10.23
49593;BMP280;35499;51.482;4.264;2023-04-24T08:20:47;100670.19;;;10.31
49593;BMP280;35499;51.482;4.264;2023-04-24T08:23:12;100687.06;;;10.45
49593;BMP280;35499;51.482;4.264;2023-04-24T08:25:38;100673.97;;;10.59
49593;BMP280;35499;51.482;4.264;2023-04-24T08:28:06;100675.44;;;10.72
49593;BMP280;35499;51.482;4.264;2023-04-24T08:30:31;100691.66;;;10.75
49593;BMP280;35499;51.482;4.264;2023-04-24T08:32:57;100694.94;;;10.82
49593;BMP280;35499;51.482;4.264;2023-04-24T08:35:22;100691.41;;;10.89
49593;BMP280;35499;51.482;4.264;2023-04-24T08:37:48;100695.44;;;11.03
49593;BMP280;35499;51.482;4.264;2023-04-24T08:40:15;100679.13;;;11.48
49593;BMP280;35499;51.482;4.264;2023-04-24T08:42:44;100698.50;;;12.03
49593;BMP280;35499;51.482;4.264;2023-04-24T08:45:12;100695.91;;;12.03
49593;BMP280;35499;51.482;4.264;2023-04-24T08:47:39;100702.78;;;12.03
49593;BMP280;35499;51.482;4.264;2023-04-24T08:50:05;100713.56;;;11.81
49593;BMP280;35499;51.482;4.264;2023-04-24T08:52:32;100725.28;;;11.55
49593;BMP280;35499;51.482;4.264;2023-04-24T08:54:59;100724.03;;;11.31
49593;BMP280;35499;51.482;4.264;2023-04-24T08:57:25;100720.09;;;11.11
49593;BMP280;35499;51.482;4.264;2023-04-24T08:59:51;100740.88;;;10.99
49593;BMP280;35499;51.482;4.264;2023-04-24T09:04:35;100747.25;;;10.78
49593;BMP280;35499;51.482;4.264;2023-04-24T09:07:02;100746.50;;;10.72
49593;BMP280;35499;51.482;4.264;2023-04-24T09:09:29;100755.97;;;10.70
49593;BMP280;35499;51.482;4.264;2023-04-24T09:11:56;100761.09;;;10.70
49593;BMP280;35499;51.482;4.264;2023-04-24T09:14:22;100763.69;;;10.68
49593;BMP280;35499;51.482;4.264;2023-04-24T09:16:49;100760.41;;;10.60
49593;BMP280;35499;51.482;4.264;2023-04-24T09:19:14;100779.19;;;10.62
49593;BMP280;35499;51.482;4.264;2023-04-24T09:21:40;100760.28;;;10.66
49593;BMP280;35499;51.482;4.264;2023-04-24T09:24:14;100767.94;;;10.69
49593;BMP280;35499;51.482;4.264;2023-04-24T09:26:42;100769.56;;;10.74
49593;BMP280;35499;51.482;4.264;2023-04-24T09:29:14;100775.47;;;10.81
49593;BMP280;35499;51.482;4.264;2023-04-24T09:31:40;100780.63;;;10.81
49593;BMP280;35499;51.482;4.264;2023-04-24T09:34:05;100780.63;;;10.79
49593;BMP280;35499;51.482;4.264;2023-04-24T09:36:35;100785.00;;;10.73
49593;BMP280;35499;51.482;4.264;2023-04-24T09:39:05;100788.50;;;10.69
49593;BMP280;35499;51.482;4.264;2023-04-24T09:41:33;100795.41;;;10.64
49593;BMP280;35499;51.482;4.264;2023-04-24T09:46:49;100799.81;;;10.56
49593;BMP280;35499;51.482;4.264;2023-04-24T09:49:16;100810.13;;;10.54
49593;BMP280;35499;51.482;4.264;2023-04-24T09:51:45;100809.34;;;10.50
49593;BMP280;35499;51.482;4.264;2023-04-24T09:54:14;100806.72;;;10.52
49593;BMP280;35499;51.482;4.264;2023-04-24T09:56:45;100819.56;;;10.53
49593;BMP280;35499;51.482;4.264;2023-04-24T09:59:15;100818.63;;;10.58
49593;BMP280;35499;51.482;4.264;2023-04-24T10:01:40;100821.13;;;10.63
49593;BMP280;35499;51.482;4.264;2023-04-24T10:04:19;100823.66;;;10.66
49593;BMP280;35499;51.482;4.264;2023-04-24T10:06:45;100826.25;;;10.63
49593;BMP280;35499;51.482;4.264;2023-04-24T10:09:11;100834.16;;;10.50
49593;BMP280;35499;51.482;4.264;2023-04-24T10:11:41;100839.44;;;10.38
49593;BMP280;35499;51.482;4.264;2023-04-24T10:14:10;100842.94;;;10.31
49593;BMP280;35499;51.482;4.264;2023-04-24T10:16:36;100844.78;;;10.23
49593;BMP280;35499;51.482;4.264;2023-04-24T10:19:02;100843.94;;;10.21
49593;BMP280;35499;51.482;4.264;2023-04-24T10:21:28;100849.03;;;10.26
49593;BMP280;35499;51.482;4.264;2023-04-24T10:23:53;100857.50;;;10.32
49593;BMP280;35499;51.482;4.264;2023-04-24T10:26:19;100853.13;;;10.40
49593;BMP280;35499;51.482;4.264;2023-04-24T10:28:45;100856.44;;;10.48
49593;BMP280;35499;51.482;4.264;2023-04-24T10:31:12;100849.56;;;10.48
49593;BMP280;35499;51.482;4.264;2023-04-24T10:33:39;100860.69;;;10.49
49593;BMP280;35499;51.482;4.264;2023-04-24T10:36:07;100878.66;;;10.49
49593;BMP280;35499;51.482;4.264;2023-04-24T10:38:35;100868.34;;;10.52
49593;BMP280;35499;51.482;4.264;2023-04-24T10:41:08;100859.69;;;10.60
49593;BMP280;35499;51.482;4.264;2023-04-24T10:43:34;100873.16;;;10.75
49593;BMP280;35499;51.482;4.264;2023-04-24T10:46:04;100863.47;;;10.91
49593;BMP280;35499;51.482;4.264;2023-04-24T10:48:31;100876.09;;;11.06
49593;BMP280;35499;51.482;4.264;2023-04-24T10:50:57;100875.03;;;11.20
49593;BMP280;35499;51.482;4.264;2023-04-24T10:53:25;100880.03;;;11.26
49593;BMP280;35499;51.482;4.264;2023-04-24T10:58:23;100880.03;;;11.26
49593;BMP280;35499;51.482;4.264;2023-04-24T11:00:57;100882.66;;;11.23
49593;BMP280;35499;51.482;4.264;2023-04-24T11:03:24;100885.25;;;11.22
49593;BMP280;35499;51.482;4.264;2023-04-24T11:06:04;100888.72;;;11.21
49593;BMP280;35499;51.482;4.264;2023-04-24T11:08:43;100898.97;;;11.22
49593;BMP280;35499;51.482;4.264;2023-04-24T11:11:17;100899.69;;;11.31
49593;BMP280;35499;51.482;4.264;2023-04-24T11:16:27;100905.59;;;11.36
49593;BMP280;35499;51.482;4.264;2023-04-24T11:19:05;100904.72;;;11.40
49593;BMP280;35499;51.482;4.264;2023-04-24T11:21:32;100901.13;;;11.50
49593;BMP280;35499;51.482;4.264;2023-04-24T11:23:58;100904.47;;;11.55
49593;BMP280;35499;51.482;4.264;2023-04-24T11:26:23;100903.50;;;11.60
49593;BMP280;35499;51.482;4.264;2023-04-24T11:29:06;100912.69;;;11.74
49593;BMP280;35499;51.482;4.264;2023-04-24T11:31:37;100920.16;;;11.87
49593;BMP280;35499;51.482;4.264;2023-04-24T11:34:11;100917.56;;;11.89
49593;BMP280;35499;51.482;4.264;2023-04-24T11:36:38;100922.81;;;11.83
49593;BMP280;35499;51.482;4.264;2023-04-24T11:39:04;100928.03;;;11.79
49593;BMP280;35499;51.482;4.264;2023-04-24T11:41:29;100926.53;;;11.66
49593;BMP280;35499;51.482;4.264;2023-04-24T11:43:55;100925.75;;;11.61
49593;BMP280;35499;51.482;4.264;2023-04-24T11:46:21;100926.59;;;11.62
49593;BMP280;35499;51.482;4.264;2023-04-24T11:48:47;100931.84;;;11.57
49593;BMP280;35499;51.482;4.264;2023-04-24T11:51:13;100936.22;;;11.51
49593;BMP280;35499;51.482;4.264;2023-04-24T11:53:39;100930.31;;;11.46
49593;BMP280;35499;51.482;4.264;2023-04-24T11:56:05;100942.19;;;11.53
49593;BMP280;35499;51.482;4.264;2023-04-24T11:58:40;100936.97;;;11.59
49593;BMP280;35499;51.482;4.264;2023-04-24T12:01:05;100933.44;;;11.65
49593;BMP280;35499;51.482;4.264;2023-04-24T12:03:31;100940.03;;;11.78
49593;BMP280;35499;51.482;4.264;2023-04-24T12:06:06;100945.03;;;11.87
49593;BMP280;35499;51.482;4.264;2023-04-24T12:08:35;100946.72;;;11.88
49593;BMP280;35499;51.482;4.264;2023-04-24T12:11:01;100949.47;;;11.78
49593;BMP280;35499;51.482;4.264;2023-04-24T12:13:27;100960.91;;;11.61
49593;BMP280;35499;51.482;4.264;2023-04-24T12:15:52;100957.81;;;11.41
49593;BMP280;35499;51.482;4.264;2023-04-24T12:18:17;100965.66;;;11.32
49593;BMP280;35499;51.482;4.264;2023-04-24T12:20:43;100963.22;;;11.22
49593;BMP280;35499;51.482;4.264;2023-04-24T12:23:08;100973.66;;;11.12
49593;BMP280;35499;51.482;4.264;2023-04-24T12:25:34;100971.94;;;11.11
49593;BMP280;35499;51.482;4.264;2023-04-24T12:30:29;100969.78;;;11.45
49593;BMP280;35499;51.482;4.264;2023-04-24T12:32:57;100967.72;;;11.64
49593;BMP280;35499;51.482;4.264;2023-04-24T12:35:24;100963.97;;;11.83
49593;BMP280;35499;51.482;4.264;2023-04-24T12:37:50;100973.94;;;12.00
49593;BMP280;35499;51.482;4.264;2023-04-24T12:40:17;100988.31;;;12.13
49593;BMP280;35499;51.482;4.264;2023-04-24T12:42:47;100976.94;;;12.24
49593;BMP280;35499;51.482;4.264;2023-04-24T12:45:14;100975.16;;;12.28
49593;BMP280;35499;51.482;4.264;2023-04-24T12:47:41;100982.09;;;12.23
49593;BMP280;35499;51.482;4.264;2023-04-24T12:50:10;100977.75;;;12.26
49593;BMP280;35499;51.482;4.264;2023-04-24T12:52:37;100986.09;;;12.38
49593;BMP280;35499;51.482;4.264;2023-04-24T12:55:03;100979.81;;;12.51
49593;BMP280;35499;51.482;4.264;2023-04-24T12:57:30;100979.72;;;12.57
49593;BMP280;35499;51.482;4.264;2023-04-24T12:59:58;100972.94;;;12.53
49593;BMP280;35499;51.482;4.264;2023-04-24T13:02:24;100992.88;;;12.42
49593;BMP280;35499;51.482;4.264;2023-04-24T13:04:50;100986.78;;;12.46
49593;BMP280;35499;51.482;4.264;2023-04-24T13:07:16;100982.31;;;12.55
49593;BMP280;35499;51.482;4.264;2023-04-24T13:09:42;100981.34;;;12.64
49593;BMP280;35499;51.482;4.264;2023-04-24T13:12:08;100975.91;;;12.75
49593;BMP280;35499;51.482;4.264;2023-04-24T13:14:34;100987.72;;;12.85
49593;BMP280;35499;51.482;4.264;2023-04-24T13:16:59;100978.13;;;12.91
49593;BMP280;35499;51.482;4.264;2023-04-24T13:19:26;100985.53;;;13.07
49593;BMP280;35499;51.482;4.264;2023-04-24T13:21:52;100988.94;;;13.09
49593;BMP280;35499;51.482;4.264;2023-04-24T13:24:18;100999.38;;;13.02
49593;BMP280;35499;51.482;4.264;2023-04-24T13:26:43;100999.72;;;12.86
49593;BMP280;35499;51.482;4.264;2023-04-24T13:29:09;101000.81;;;12.76
49593;BMP280;35499;51.482;4.264;2023-04-24T13:31:34;100997.63;;;12.64
49593;BMP280;35499;51.482;4.264;2023-04-24T13:34:00;101013.47;;;12.44
49593;BMP280;35499;51.482;4.264;2023-04-24T13:36:25;101012.94;;;12.26
49593;BMP280;35499;51.482;4.264;2023-04-24T13:38:51;101007.28;;;12.08
49593;BMP280;35499;51.482;4.264;2023-04-24T13:41:16;101016.09;;;11.95
49593;BMP280;35499;51.482;4.264;2023-04-24T13:43:41;101011.84;;;11.91
49593;BMP280;35499;51.482;4.264;2023-04-24T13:46:08;101010.06;;;11.96
49593;BMP280;35499;51.482;4.264;2023-04-24T13:48:36;101021.19;;;11.97
49593;BMP280;35499;51.482;4.264;2023-04-24T13:51:01;101018.72;;;11.91
49593;BMP280;35499;51.482;4.264;2023-04-24T13:53:27;101011.16;;;11.82
49593;BMP280;35499;51.482;4.264;2023-04-24T13:55:52;101010.47;;;11.71
49593;BMP280;35499;51.482;4.264;2023-04-24T13:58:18;101019.13;;;11.67
49593;BMP280;35499;51.482;4.264;2023-04-24T14:00:43;101013.13;;;11.67
49593;BMP280;35499;51.482;4.264;2023-04-24T14:03:08;101008.03;;;11.65
49593;BMP280;35499;51.482;4.264;2023-04-24T14:05:33;101019.19;;;11.64
49593;BMP280;35499;51.482;4.264;2023-04-24T14:07:59;101014.03;;;11.63